createdAt,value
2022-10-19T00:00:33.604Z,71.87
2022-10-19T00:03:01.219Z,71.94
2022-10-19T00:05:29.030Z,72.02
2022-10-19T00:07:56.549Z,72.12
2022-10-19T00:10:25.336Z,72.11
2022-10-19T00:12:52.924Z,71.86
2022-10-19T00:15:21.177Z,71.93
2022-10-19T00:17:48.731Z,72.09
2022-10-19T00:20:16.350Z,71.91
2022-10-19T00:22:43.814Z,71.88
2022-10-19T00:25:11.316Z,72.13
2022-10-19T00:27:40.175Z,72.01
2022-10-19T00:30:08.902Z,72.36
2022-10-19T00:32:36.489Z,72.18
2022-10-19T00:35:04.380Z,72.01
2022-10-19T00:37:31.920Z,72.06
2022-10-19T00:39:59.441Z,72.11
2022-10-19T00:42:27.119Z,71.97
2022-10-19T00:45:17.127Z,72.23
2022-10-19T00:47:45.882Z,72.07
2022-10-19T00:50:17.315Z,71.95
2022-10-19T00:52:44.913Z,72.09
2022-10-19T00:55:13.043Z,71.96
2022-10-19T00:57:40.884Z,72.07
2022-10-19T01:00:09.951Z,71.92
2022-10-19T01:02:39.030Z,71.85
2022-10-19T01:05:08.319Z,72.12
2022-10-19T01:07:36.063Z,72.01
2022-10-19T01:10:04.615Z,72.03
2022-10-19T01:12:52.621Z,71.99
2022-10-19T01:15:31.071Z,72.07
2022-10-19T01:18:06.895Z,71.79
2022-10-19T01:20:47.706Z,71.84
2022-10-19T01:23:39.753Z,71.85
2022-10-19T01:26:23.775Z,71.81
2022-10-19T01:29:06.081Z,71.79
2022-10-19T01:31:45.720Z,71.72
2022-10-19T01:34:20.465Z,71.69
2022-10-19T01:37:01.819Z,71.54
2022-10-19T01:39:40.560Z,71.68
2022-10-19T01:42:13.802Z,71.61
2022-10-19T01:44:48.735Z,71.44
2022-10-19T01:47:24.005Z,71.46
2022-10-19T01:49:56.578Z,71.45
2022-10-19T01:52:26.674Z,71.52
2022-10-19T01:54:57.298Z,71.19
2022-10-19T01:57:29.203Z,71.40
2022-10-19T01:59:58.809Z,71.39
2022-10-19T02:02:29.131Z,71.06
2022-10-19T02:04:58.669Z,71.26
2022-10-19T02:07:26.791Z,71.14
2022-10-19T02:09:54.387Z,70.87
2022-10-19T02:12:22.766Z,71.17
2022-10-19T02:14:57.530Z,71.01
2022-10-19T02:17:29.715Z,71.07
2022-10-19T02:19:58.776Z,71.02
2022-10-19T02:22:26.398Z,70.88
2022-10-19T02:24:53.887Z,71.05
2022-10-19T02:27:21.778Z,70.76
2022-10-19T02:29:49.377Z,70.67
2022-10-19T02:32:17.039Z,71.07
2022-10-19T02:34:45.977Z,71.01
2022-10-19T02:37:13.672Z,70.80
2022-10-19T02:39:41.471Z,70.99
2022-10-19T02:42:13.072Z,71.02
2022-10-19T02:44:45.022Z,71.04
2022-10-19T02:47:19.015Z,70.88
2022-10-19T02:49:49.650Z,71.04
2022-10-19T02:52:17.275Z,70.80
2022-10-19T02:54:45.735Z,71.03
2022-10-19T02:57:17.844Z,70.80
2022-10-19T02:59:45.542Z,70.92
2022-10-19T03:02:13.201Z,70.99
2022-10-19T03:04:41.631Z,70.89
2022-10-19T03:07:11.461Z,70.76
2022-10-19T03:09:38.968Z,70.75
2022-10-19T03:12:06.820Z,70.83
2022-10-19T03:14:35.039Z,70.87
2022-10-19T03:17:02.674Z,70.95
2022-10-19T03:19:30.270Z,70.90
2022-10-19T03:21:57.962Z,70.88
2022-10-19T03:24:27.126Z,71.02
2022-10-19T03:26:54.659Z,70.80
2022-10-19T03:29:22.152Z,70.84
2022-10-19T03:31:50.033Z,70.81
2022-10-19T03:34:17.620Z,70.80
2022-10-19T03:36:45.175Z,70.76
2022-10-19T03:39:15.581Z,70.75
2022-10-19T03:41:44.793Z,71.07
2022-10-19T03:44:12.933Z,71.00
2022-10-19T03:46:41.119Z,71.07
2022-10-19T03:49:09.513Z,70.97
2022-10-19T03:51:37.281Z,70.66
2022-10-19T03:54:07.371Z,70.76
2022-10-19T03:56:36.300Z,70.40
2022-10-19T03:59:07.299Z,70.64
2022-10-19T04:01:37.476Z,70.54
2022-10-19T04:04:07.286Z,70.52
2022-10-19T04:06:37.063Z,70.48
2022-10-19T04:09:05.927Z,70.44
2022-10-19T04:11:35.046Z,70.19
2022-10-19T04:14:03.684Z,70.46
2022-10-19T04:16:33.264Z,70.44
2022-10-19T04:19:01.526Z,70.25
2022-10-19T04:21:30.692Z,70.05
2022-10-19T04:24:01.187Z,70.12
2022-10-19T04:26:29.548Z,70.01
2022-10-19T04:28:58.556Z,69.95
2022-10-19T04:31:26.763Z,69.70
2022-10-19T04:33:56.180Z,70.12
2022-10-19T04:36:24.129Z,70.08
2022-10-19T04:38:51.774Z,69.88
2022-10-19T04:41:21.972Z,70.08
2022-10-19T04:43:49.816Z,69.77
2022-10-19T04:46:19.390Z,70.15
2022-10-19T04:48:48.401Z,69.76
2022-10-19T04:51:18.236Z,69.71
2022-10-19T04:53:45.922Z,69.59
2022-10-19T04:56:16.194Z,69.35
2022-10-19T04:58:44.455Z,69.86
2022-10-19T05:01:14.854Z,69.70
2022-10-19T05:03:42.738Z,69.61
2022-10-19T05:06:11.682Z,69.60
2022-10-19T05:08:41.605Z,69.49
2022-10-19T05:11:11.324Z,69.56
2022-10-19T05:13:39.430Z,69.25
2022-10-19T05:16:11.106Z,69.05
2022-10-19T05:18:38.681Z,69.53
2022-10-19T05:21:08.492Z,69.34
2022-10-19T05:23:36.215Z,69.26
2022-10-19T05:26:07.293Z,69.49
2022-10-19T05:28:35.904Z,69.32
2022-10-19T05:31:09.458Z,69.29
2022-10-19T05:33:37.561Z,69.28
2022-10-19T05:36:16.761Z,69.16
2022-10-19T05:38:45.098Z,69.24
2022-10-19T05:41:14.836Z,69.01
2022-10-19T05:43:43.505Z,69.08
2022-10-19T05:46:12.698Z,69.10
2022-10-19T05:48:41.331Z,68.90
2022-10-19T05:51:11.574Z,69.12
2022-10-19T05:53:39.714Z,69.25
2022-10-19T05:56:09.633Z,69.17
2022-10-19T05:58:38.765Z,69.23
2022-10-19T06:01:06.943Z,69.11
2022-10-19T06:03:34.671Z,69.05
2022-10-19T06:06:04.380Z,69.12
2022-10-19T06:08:32.243Z,69.27
2022-10-19T06:11:07.445Z,69.28
2022-10-19T06:13:36.009Z,69.20
2022-10-19T06:16:05.955Z,69.26
2022-10-19T06:18:33.706Z,69.25
2022-10-19T06:21:04.028Z,69.42
2022-10-19T06:23:32.022Z,69.47
2022-10-19T06:26:00.497Z,69.38
2022-10-19T06:28:28.236Z,69.36
2022-10-19T06:30:55.957Z,69.50
2022-10-19T06:33:25.069Z,69.58
2022-10-19T06:35:52.704Z,69.63
2022-10-19T06:38:20.577Z,69.54
2022-10-19T06:40:49.137Z,69.45
2022-10-19T06:43:17.175Z,69.36
2022-10-19T06:45:44.830Z,69.48
2022-10-19T06:48:12.585Z,69.60
2022-10-19T06:50:41.581Z,69.44
2022-10-19T06:53:09.305Z,69.54
2022-10-19T06:55:37.710Z,69.36
2022-10-19T06:58:05.412Z,69.47
2022-10-19T07:00:33.149Z,69.51
2022-10-19T07:03:01.080Z,69.37
2022-10-19T07:05:28.608Z,69.17
2022-10-19T07:07:58.253Z,69.33
2022-10-19T07:10:26.035Z,69.22
2022-10-19T07:12:53.617Z,69.28
2022-10-19T07:15:21.131Z,69.12
2022-10-19T07:17:48.631Z,69.25
2022-10-19T07:20:16.213Z,69.29
2022-10-19T07:22:43.837Z,69.14
2022-10-19T07:25:12.644Z,69.31
2022-10-19T07:27:40.624Z,69.30
2022-10-19T07:30:09.814Z,69.28
2022-10-19T07:32:37.635Z,69.36
2022-10-19T07:35:14.981Z,69.22
2022-10-19T07:37:43.493Z,69.10
2022-10-19T07:40:33.217Z,69.14
2022-10-19T07:43:01.554Z,69.10
2022-10-19T07:45:44.203Z,69.14
2022-10-19T07:51:16.992Z,69.12
2022-10-19T07:53:54.370Z,68.99
2022-10-19T07:56:31.339Z,69.04
2022-10-19T07:59:10.455Z,68.82
2022-10-19T08:01:45.524Z,68.80
2022-10-19T08:04:59.072Z,68.88
2022-10-19T08:09:53.989Z,68.47
2022-10-19T08:12:27.076Z,68.38
2022-10-19T08:14:56.884Z,68.34
2022-10-19T08:17:26.642Z,68.30
2022-10-19T08:19:55.414Z,68.45
2022-10-19T08:22:26.471Z,68.40
2022-10-19T08:24:55.618Z,67.95
2022-10-19T08:27:25.972Z,68.05
2022-10-19T08:29:56.257Z,68.10
2022-10-19T08:32:26.667Z,67.97
2022-10-19T08:34:57.280Z,67.84
2022-10-19T08:40:22.654Z,67.69
2022-10-19T08:46:21.039Z,67.76
2022-10-19T08:48:52.628Z,67.53
2022-10-19T08:51:23.198Z,67.91
2022-10-19T08:54:01.461Z,68.05
2022-10-19T08:56:50.539Z,67.77
2022-10-19T08:59:34.164Z,67.82
2022-10-19T09:02:14.057Z,67.97
2022-10-19T09:04:45.512Z,68.09
2022-10-19T09:07:28.286Z,68.03
2022-10-19T09:10:00.650Z,68.15
2022-10-19T09:12:43.744Z,68.12
2022-10-19T09:15:17.100Z,68.29
2022-10-19T09:17:46.794Z,68.25
2022-10-19T09:20:18.711Z,68.19
2022-10-19T09:22:48.156Z,68.67
2022-10-19T09:25:22.377Z,68.33
2022-10-19T09:30:40.209Z,68.30
2022-10-19T09:33:22.457Z,68.00
2022-10-19T09:35:52.603Z,68.22
2022-10-19T09:38:28.053Z,68.41
2022-10-19T09:40:58.308Z,67.92
2022-10-19T09:43:34.611Z,67.86
2022-10-19T09:49:13.610Z,67.61
2022-10-19T09:51:51.092Z,67.45
2022-10-19T09:54:29.115Z,67.35
2022-10-19T09:57:00.678Z,67.52
2022-10-19T09:59:32.328Z,66.87
2022-10-19T10:02:06.578Z,66.27
2022-10-19T10:07:44.432Z,66.28
2022-10-19T10:10:25.531Z,65.49
2022-10-19T10:12:59.218Z,65.24
2022-10-19T10:15:31.001Z,64.93
2022-10-19T10:18:10.227Z,64.64
2022-10-19T10:20:59.669Z,64.71
2022-10-19T10:23:31.646Z,64.30
2022-10-19T10:26:02.095Z,63.40
2022-10-19T10:28:32.312Z,63.14
2022-10-19T10:31:05.119Z,63.36
2022-10-19T10:33:44.737Z,63.42
2022-10-19T10:36:16.891Z,62.89
2022-10-19T10:38:56.379Z,62.42
2022-10-19T10:41:30.215Z,62.34
2022-10-19T10:44:04.752Z,62.05
2022-10-19T10:46:35.898Z,61.96
2022-10-19T10:49:07.330Z,61.83
2022-10-19T10:51:45.653Z,61.91
2022-10-19T10:57:14.168Z,62.17
2022-10-19T11:00:16.262Z,61.59
2022-10-19T11:02:53.889Z,61.26
2022-10-19T11:22:00.097Z,57.04
2022-10-19T11:24:43.868Z,56.02
2022-10-19T11:27:38.276Z,55.74
2022-10-19T11:30:17.700Z,55.08
2022-10-19T11:33:02.566Z,54.79
2022-10-19T11:35:55.131Z,53.67
2022-10-19T11:38:43.155Z,53.60
2022-10-19T11:41:19.545Z,53.20
2022-10-19T11:46:59.985Z,52.77
2022-10-19T11:49:43.256Z,52.57
2022-10-19T11:52:21.784Z,51.14
2022-10-19T11:55:21.141Z,51.49
2022-10-19T11:58:15.981Z,51.37
2022-10-19T12:01:03.494Z,50.78
2022-10-19T12:04:09.572Z,49.76
2022-10-19T12:06:48.584Z,50.01
2022-10-19T12:09:36.992Z,50.56
2022-10-19T12:12:23.642Z,50.96
2022-10-19T12:15:03.682Z,49.71
2022-10-19T12:17:37.966Z,48.69
2022-10-19T12:20:14.878Z,49.27
2022-10-19T12:22:48.590Z,48.51
2022-10-19T12:25:20.651Z,48.12
2022-10-19T12:27:50.863Z,48.25
2022-10-19T12:30:24.664Z,49.63
2022-10-19T12:33:10.162Z,50.44
2022-10-19T12:36:03.465Z,50.34
2022-10-19T12:38:46.122Z,49.70
2022-10-19T12:41:27.749Z,49.15
2022-10-19T12:44:09.397Z,49.05
2022-10-19T12:46:49.630Z,48.56
2022-10-19T12:49:47.767Z,50.18
2022-10-19T12:52:19.918Z,48.43
2022-10-19T12:54:47.944Z,47.80
2022-10-19T12:57:31.623Z,49.62
2022-10-19T13:00:04.131Z,48.71
2022-10-19T13:02:40.366Z,49.12
2022-10-19T13:05:10.551Z,48.27
2022-10-19T13:07:39.342Z,48.08
2022-10-19T13:10:33.460Z,48.42
2022-10-19T13:13:05.250Z,47.89
2022-10-19T13:15:58.917Z,48.99
2022-10-19T13:19:11.323Z,48.16
2022-10-19T13:22:34.744Z,47.99
2022-10-19T13:25:35.502Z,48.43
2022-10-19T13:28:41.488Z,48.16
2022-10-19T13:31:26.042Z,48.25
2022-10-19T13:33:56.905Z,46.66
2022-10-19T13:36:26.675Z,46.29
2022-10-19T13:39:10.827Z,48.13
2022-10-19T13:41:54.548Z,48.41
2022-10-19T13:44:29.424Z,47.63
2022-10-19T13:47:24.153Z,48.64
2022-10-19T13:50:04.774Z,47.93
2022-10-19T13:52:57.889Z,48.15
2022-10-19T13:56:02.217Z,48.34
2022-10-19T13:59:01.892Z,48.42
2022-10-19T14:01:47.097Z,48.91
2022-10-19T14:04:32.734Z,48.67
2022-10-19T14:07:08.170Z,47.76
2022-10-19T14:10:00.350Z,48.48
2022-10-19T14:12:34.305Z,48.08
2022-10-19T14:15:02.388Z,47.64
2022-10-19T14:17:34.837Z,48.24
2022-10-19T14:20:04.264Z,47.56
2022-10-19T14:22:37.079Z,47.61
2022-10-19T14:25:08.680Z,48.31
2022-10-19T14:27:40.679Z,48.31
2022-10-19T14:30:23.655Z,48.91
2022-10-19T14:32:56.797Z,47.83
2022-10-19T14:35:39.976Z,48.25
2022-10-19T14:38:09.857Z,48.03
2022-10-19T14:40:41.485Z,48.13
2022-10-19T14:46:12.188Z,48.94
2022-10-19T14:48:42.033Z,48.39
2022-10-19T14:51:20.232Z,48.55
2022-10-19T14:53:52.451Z,48.40
2022-10-19T14:56:27.194Z,48.44
2022-10-19T14:59:00.299Z,48.50
2022-10-19T15:01:31.984Z,48.49
2022-10-19T15:04:01.160Z,48.23
2022-10-19T15:06:35.861Z,48.62
2022-10-19T15:09:12.067Z,48.59
2022-10-19T15:11:50.500Z,48.63
2022-10-19T15:14:25.187Z,48.87
2022-10-19T15:16:58.256Z,48.83
2022-10-19T15:19:31.066Z,48.92
2022-10-19T15:22:16.385Z,49.32
2022-10-19T15:24:59.109Z,49.24
2022-10-19T15:27:38.896Z,49.30
2022-10-19T15:30:25.503Z,48.91
2022-10-19T15:33:12.975Z,49.31
2022-10-19T15:35:46.331Z,49.21
2022-10-19T15:38:24.017Z,48.97
2022-10-19T15:40:58.996Z,49.25
2022-10-19T15:43:38.853Z,49.48
2022-10-19T15:46:12.463Z,49.30
2022-10-19T15:48:53.839Z,49.65
2022-10-19T15:51:57.920Z,49.67
2022-10-19T15:57:46.833Z,49.86
2022-10-19T16:03:17.056Z,49.60
2022-10-19T16:06:02.249Z,49.72
2022-10-19T16:14:02.366Z,49.73
2022-10-19T16:16:35.824Z,50.22
2022-10-19T16:19:20.280Z,50.08
2022-10-19T16:22:05.745Z,50.70
2022-10-19T16:24:34.814Z,50.39
2022-10-19T16:29:54.375Z,50.43
2022-10-19T16:32:23.578Z,50.60
2022-10-19T16:34:53.784Z,50.97
2022-10-19T16:37:29.357Z,50.80
2022-10-19T16:40:12.940Z,50.67
2022-10-19T16:42:41.658Z,51.22
2022-10-19T16:45:25.876Z,51.08
2022-10-19T16:47:55.512Z,50.87
2022-10-19T16:50:23.566Z,51.27
2022-10-19T16:53:06.991Z,51.80
2022-10-19T16:55:38.059Z,51.24
2022-10-19T16:58:06.988Z,51.68
2022-10-19T17:00:35.587Z,51.73
2022-10-19T17:03:05.282Z,51.75
2022-10-19T17:05:52.459Z,51.78
2022-10-19T17:08:23.907Z,51.94
2022-10-19T17:10:53.805Z,52.01
2022-10-19T17:13:21.291Z,52.26
2022-10-19T17:15:48.782Z,52.43
2022-10-19T17:18:16.277Z,52.27
2022-10-19T17:20:43.716Z,52.49
2022-10-19T17:23:11.198Z,52.76
2022-10-19T17:25:47.483Z,52.92
2022-10-19T17:28:14.910Z,52.80
2022-10-19T17:30:42.631Z,53.05
2022-10-19T17:33:10.051Z,52.89
2022-10-19T17:35:37.526Z,53.29
2022-10-19T17:38:05.001Z,53.40
2022-10-19T17:40:33.501Z,53.39
2022-10-19T17:43:02.326Z,53.62
2022-10-19T17:45:29.807Z,53.50
2022-10-19T17:47:57.625Z,53.60
2022-10-19T17:50:25.042Z,53.69
2022-10-19T17:52:52.505Z,53.63
2022-10-19T17:55:20.033Z,53.68
2022-10-19T17:57:47.511Z,53.96
2022-10-19T18:00:16.679Z,54.07
2022-10-19T18:02:45.633Z,54.17
2022-10-19T18:05:13.327Z,54.20
2022-10-19T18:07:40.863Z,54.34
2022-10-19T18:10:08.976Z,54.18
2022-10-19T18:12:36.428Z,54.53
2022-10-19T18:15:04.189Z,54.64
2022-10-19T18:17:32.970Z,54.72
2022-10-19T18:20:00.406Z,54.64
2022-10-19T18:22:27.885Z,54.85
2022-10-19T18:24:55.400Z,54.71
2022-10-19T18:27:22.950Z,55.10
2022-10-19T18:29:50.402Z,54.97
2022-10-19T18:32:18.091Z,55.07
2022-10-19T18:34:47.000Z,55.11
2022-10-19T18:37:14.462Z,55.30
2022-10-19T18:39:41.877Z,55.28
2022-10-19T18:42:12.028Z,55.66
2022-10-19T18:44:39.558Z,55.33
2022-10-19T18:47:07.035Z,55.40
2022-10-19T18:49:34.800Z,55.44
2022-10-19T18:52:03.592Z,55.76
2022-10-19T18:54:31.034Z,55.92
2022-10-19T18:56:58.586Z,56.02
2022-10-19T18:59:29.014Z,55.77
2022-10-19T19:01:56.512Z,56.13
2022-10-19T19:04:23.995Z,55.85
2022-10-19T19:06:51.638Z,55.91
2022-10-19T19:09:21.179Z,56.16
2022-10-19T19:11:48.735Z,55.82
2022-10-19T19:14:20.851Z,56.19
2022-10-19T19:16:48.657Z,56.34
2022-10-19T19:19:18.506Z,55.83
2022-10-19T19:21:47.361Z,56.20
2022-10-19T19:24:17.638Z,56.39
2022-10-19T19:26:50.107Z,56.49
2022-10-19T19:29:18.784Z,56.21
2022-10-19T19:31:47.184Z,56.60
2022-10-19T19:34:15.096Z,56.78
2022-10-19T19:36:47.499Z,56.50
2022-10-19T19:39:16.870Z,56.75
2022-10-19T19:41:46.198Z,56.54
2022-10-19T19:44:14.049Z,56.72
2022-10-19T19:46:41.661Z,56.52
2022-10-19T19:49:09.123Z,56.59
2022-10-19T19:51:37.209Z,56.59
2022-10-19T19:54:05.623Z,57.19
2022-10-19T19:56:33.527Z,56.72
2022-10-19T19:59:04.410Z,56.95
2022-10-19T20:01:32.986Z,56.97
2022-10-19T20:06:37.534Z,57.05
2022-10-19T20:09:06.301Z,56.90
2022-10-19T20:11:41.855Z,57.16
2022-10-19T20:14:11.644Z,56.87
2022-10-19T20:16:39.239Z,57.41
2022-10-19T20:19:08.363Z,57.57
2022-10-19T20:21:36.333Z,57.31
2022-10-19T20:24:04.655Z,57.46
2022-10-19T20:26:32.725Z,58.03
2022-10-19T20:29:02.252Z,57.73
2022-10-19T20:31:31.857Z,57.93
2022-10-19T20:33:59.421Z,57.38
2022-10-19T20:36:27.606Z,57.62
2022-10-19T20:38:57.312Z,57.77
2022-10-19T20:41:27.239Z,57.81
2022-10-19T20:43:55.913Z,57.90
2022-10-19T20:46:24.997Z,58.17
2022-10-19T20:48:54.733Z,58.25
2022-10-19T20:51:27.460Z,57.70
2022-10-19T20:53:59.462Z,58.06
2022-10-19T20:56:28.963Z,57.98
2022-10-19T20:58:57.182Z,58.05
2022-10-19T21:01:25.411Z,58.30
2022-10-19T21:03:55.934Z,58.10
2022-10-19T21:06:24.990Z,58.27
2022-10-19T21:08:53.327Z,58.45
2022-10-19T21:11:22.630Z,58.59
2022-10-19T21:13:54.361Z,58.45
2022-10-19T21:16:23.305Z,58.63
2022-10-19T21:18:51.558Z,58.72
2022-10-19T21:21:24.872Z,58.44
2022-10-19T21:23:57.291Z,59.07
2022-10-19T21:26:26.111Z,59.39
2022-10-19T21:28:54.059Z,58.68
2022-10-19T21:31:23.017Z,58.36
2022-10-19T21:33:50.826Z,58.85
2022-10-19T21:36:21.114Z,59.09
2022-10-19T21:38:49.236Z,58.64
2022-10-19T21:41:20.898Z,58.98
2022-10-19T21:43:51.533Z,58.96
2022-10-19T21:46:20.835Z,59.21
2022-10-19T21:48:48.969Z,59.24
2022-10-19T21:51:23.610Z,59.04
2022-10-19T21:53:51.147Z,59.36
2022-10-19T21:56:18.718Z,59.30
2022-10-19T21:58:46.961Z,59.62
2022-10-19T22:01:15.348Z,59.66
2022-10-19T22:03:42.968Z,59.28
2022-10-19T22:06:10.587Z,59.32
2022-10-19T22:08:40.665Z,59.56
2022-10-19T22:11:10.382Z,59.44
2022-10-19T22:13:38.434Z,59.43
2022-10-19T22:16:06.552Z,59.49
2022-10-19T22:18:34.228Z,60.21
2022-10-19T22:21:04.077Z,59.84
2022-10-19T22:23:31.659Z,59.87
2022-10-19T22:26:00.451Z,59.61
2022-10-19T22:28:28.624Z,59.60
2022-10-19T22:30:57.129Z,60.03
2022-10-19T22:33:25.428Z,59.60
2022-10-19T22:35:57.755Z,59.56
2022-10-19T22:38:25.670Z,59.90
2022-10-19T22:40:53.244Z,59.75
2022-10-19T22:43:22.359Z,59.71
2022-10-19T22:45:50.250Z,59.80
2022-10-19T22:48:18.894Z,60.20
2022-10-19T22:50:47.030Z,60.08
2022-10-19T22:53:14.696Z,60.21
2022-10-19T22:55:42.351Z,60.00
2022-10-19T23:00:44.123Z,60.13
2022-10-19T23:03:12.112Z,60.16
2022-10-19T23:05:39.757Z,60.11
2022-10-19T23:08:07.411Z,60.32
2022-10-19T23:10:35.072Z,60.55
2022-10-19T23:13:02.670Z,60.61
2022-10-19T23:15:30.294Z,60.67
2022-10-19T23:18:00.111Z,60.35
2022-10-19T23:20:27.735Z,60.66
2022-10-19T23:22:57.916Z,60.72
2022-10-19T23:25:25.554Z,60.56
2022-10-19T23:27:53.422Z,60.55
2022-10-19T23:30:21.076Z,60.65
2022-10-19T23:32:48.904Z,60.88
2022-10-19T23:35:17.941Z,60.58
2022-10-19T23:37:45.556Z,60.92
2022-10-19T23:40:13.335Z,61.00
2022-10-19T23:42:40.829Z,60.71
2022-10-19T23:45:09.130Z,61.00
2022-10-19T23:47:36.958Z,61.02
2022-10-19T23:50:04.897Z,61.10
2022-10-19T23:52:33.639Z,61.12
2022-10-19T23:55:01.415Z,61.20
2022-10-19T23:57:28.902Z,61.39
2022-10-19T23:59:56.339Z,61.21
